Manhattan Beach, Minnesota
Current Conditions -  °F | °C
As of 10:14 AM on Thursday 30 Oct 2014 (Local Time) from KPWC Reporting Station
Moderate Rain Moderate Rain  
Wind Chill: 33°   Ceiling: 3000
Heat Index: 37°   Visibility: 5mi
Dew Point: 37°   Wind: 6mph
Humidity: 100%   Direction: 350°N
Pressure: 30.14"   Gusts: NA
Location:  46.7336°N, 94.1401°W
Report Text: KPWC 301514Z AUTO 35005KT 5SM RA SCT013 BKN030 OVC037 03/03 A3014 RMK AO2
Loading
Personal Weather Stations






























Interactive Weather Map
Tropical Storm Tracking
New forecast layout! Learn more

10-Day Weather Forecast

Advertisements
Track Severe Weather on mobile